sensor_id;sensor_type;location;lat;lon;timestamp;P1;durP1;ratioP1;P2;durP2;ratioP2
21492;SDS011;10908;50.690;4.400;2023-02-20T02:30:24;22.23;;;8.95;;
21492;SDS011;10908;50.690;4.400;2023-02-20T02:33:54;22.58;;;9.00;;
21492;SDS011;10908;50.690;4.400;2023-02-20T02:36:21;18.70;;;8.63;;
21492;SDS011;10908;50.690;4.400;2023-02-20T02:41:19;18.63;;;9.23;;
21492;SDS011;10908;50.690;4.400;2023-02-20T02:44:10;20.65;;;8.82;;
21492;SDS011;10908;50.690;4.400;2023-02-20T02:52:22;23.90;;;9.13;;
21492;SDS011;10908;50.690;4.400;2023-02-20T02:55:13;22.95;;;9.10;;
21492;SDS011;10908;50.690;4.400;2023-02-20T02:57:45;22.30;;;9.35;;
21492;SDS011;10908;50.690;4.400;2023-02-20T03:00:54;23.30;;;8.75;;
21492;SDS011;10908;50.690;4.400;2023-02-20T03:05:47;22.85;;;9.07;;
21492;SDS011;10908;50.690;4.400;2023-02-20T03:08:54;23.13;;;8.70;;
21492;SDS011;10908;50.690;4.400;2023-02-20T03:11:24;23.13;;;8.63;;
21492;SDS011;10908;50.690;4.400;2023-02-20T03:14:04;25.35;;;9.52;;
21492;SDS011;10908;50.690;4.400;2023-02-20T03:19:52;27.13;;;10.43;;
21492;SDS011;10908;50.690;4.400;2023-02-20T03:25:07;26.35;;;9.98;;
21492;SDS011;10908;50.690;4.400;2023-02-20T03:27:52;25.35;;;10.45;;
21492;SDS011;10908;50.690;4.400;2023-02-20T03:30:30;25.25;;;10.15;;
21492;SDS011;10908;50.690;4.400;2023-02-20T03:33:04;27.38;;;10.60;;
21492;SDS011;10908;50.690;4.400;2023-02-20T03:36:03;22.40;;;10.43;;
21492;SDS011;10908;50.690;4.400;2023-02-20T03:38:56;25.05;;;10.10;;
21492;SDS011;10908;50.690;4.400;2023-02-20T03:41:44;22.45;;;9.55;;
21492;SDS011;10908;50.690;4.400;2023-02-20T03:44:31;20.17;;;10.15;;
21492;SDS011;10908;50.690;4.400;2023-02-20T03:46:58;23.25;;;9.13;;
21492;SDS011;10908;50.690;4.400;2023-02-20T03:49:27;25.98;;;9.05;;
21492;SDS011;10908;50.690;4.400;2023-02-20T03:51:59;22.85;;;9.63;;
21492;SDS011;10908;50.690;4.400;2023-02-20T03:54:25;25.05;;;8.68;;
21492;SDS011;10908;50.690;4.400;2023-02-20T03:56:57;21.60;;;8.75;;
21492;SDS011;10908;50.690;4.400;2023-02-20T03:59:29;21.42;;;8.63;;
21492;SDS011;10908;50.690;4.400;2023-02-20T04:02:02;18.65;;;8.85;;
21492;SDS011;10908;50.690;4.400;2023-02-20T04:04:39;18.08;;;8.52;;
21492;SDS011;10908;50.690;4.400;2023-02-20T04:07:10;22.08;;;8.15;;
21492;SDS011;10908;50.690;4.400;2023-02-20T04:09:40;21.85;;;8.35;;
21492;SDS011;10908;50.690;4.400;2023-02-20T04:12:16;17.52;;;7.63;;
21492;SDS011;10908;50.690;4.400;2023-02-20T04:14:54;22.60;;;8.25;;
21492;SDS011;10908;50.690;4.400;2023-02-20T04:17:26;24.20;;;7.88;;
21492;SDS011;10908;50.690;4.400;2023-02-20T04:20:02;18.80;;;8.02;;
21492;SDS011;10908;50.690;4.400;2023-02-20T04:22:30;21.88;;;8.88;;
21492;SDS011;10908;50.690;4.400;2023-02-20T04:25:00;16.55;;;8.00;;
21492;SDS011;10908;50.690;4.400;2023-02-20T04:27:32;24.35;;;8.05;;
21492;SDS011;10908;50.690;4.400;2023-02-20T04:29:58;23.13;;;8.73;;
21492;SDS011;10908;50.690;4.400;2023-02-20T04:32:24;20.30;;;8.15;;
21492;SDS011;10908;50.690;4.400;2023-02-20T04:34:49;25.80;;;8.77;;
21492;SDS011;10908;50.690;4.400;2023-02-20T04:37:16;23.65;;;9.55;;
21492;SDS011;10908;50.690;4.400;2023-02-20T04:39:43;24.00;;;9.27;;
21492;SDS011;10908;50.690;4.400;2023-02-20T04:42:10;21.10;;;9.90;;
21492;SDS011;10908;50.690;4.400;2023-02-20T04:44:36;20.00;;;9.82;;
21492;SDS011;10908;50.690;4.400;2023-02-20T04:47:05;19.60;;;9.80;;
21492;SDS011;10908;50.690;4.400;2023-02-20T04:49:33;18.23;;;9.00;;
21492;SDS011;10908;50.690;4.400;2023-02-20T04:51:59;19.88;;;8.30;;
21492;SDS011;10908;50.690;4.400;2023-02-20T04:54:24;17.70;;;8.27;;
21492;SDS011;10908;50.690;4.400;2023-02-20T04:56:50;22.70;;;7.80;;
21492;SDS011;10908;50.690;4.400;2023-02-20T04:59:16;21.60;;;8.32;;
21492;SDS011;10908;50.690;4.400;2023-02-20T05:01:43;15.65;;;7.82;;
21492;SDS011;10908;50.690;4.400;2023-02-20T05:04:12;17.85;;;8.20;;
21492;SDS011;10908;50.690;4.400;2023-02-20T05:06:43;17.38;;;7.95;;
21492;SDS011;10908;50.690;4.400;2023-02-20T05:09:11;22.15;;;8.43;;
21492;SDS011;10908;50.690;4.400;2023-02-20T05:11:37;19.35;;;8.73;;
21492;SDS011;10908;50.690;4.400;2023-02-20T05:14:03;19.40;;;8.10;;
21492;SDS011;10908;50.690;4.400;2023-02-20T05:16:29;21.70;;;8.55;;
21492;SDS011;10908;50.690;4.400;2023-02-20T05:18:55;20.65;;;9.20;;
21492;SDS011;10908;50.690;4.400;2023-02-20T05:21:20;19.85;;;8.45;;
21492;SDS011;10908;50.690;4.400;2023-02-20T05:24:04;19.30;;;9.00;;
21492;SDS011;10908;50.690;4.400;2023-02-20T05:26:30;18.90;;;9.40;;
21492;SDS011;10908;50.690;4.400;2023-02-20T05:28:56;25.10;;;8.85;;
21492;SDS011;10908;50.690;4.400;2023-02-20T05:31:22;21.48;;;10.07;;
21492;SDS011;10908;50.690;4.400;2023-02-20T05:33:47;21.50;;;9.63;;
21492;SDS011;10908;50.690;4.400;2023-02-20T05:36:13;20.70;;;9.68;;
21492;SDS011;10908;50.690;4.400;2023-02-20T05:38:39;24.42;;;9.57;;
21492;SDS011;10908;50.690;4.400;2023-02-20T05:41:11;18.20;;;8.88;;
21492;SDS011;10908;50.690;4.400;2023-02-20T05:43:38;21.90;;;8.90;;
21492;SDS011;10908;50.690;4.400;2023-02-20T05:46:04;17.00;;;8.60;;
21492;SDS011;10908;50.690;4.400;2023-02-20T05:48:29;20.88;;;8.75;;
21492;SDS011;10908;50.690;4.400;2023-02-20T05:50:55;18.73;;;8.18;;
21492;SDS011;10908;50.690;4.400;2023-02-20T05:53:21;23.17;;;8.60;;
21492;SDS011;10908;50.690;4.400;2023-02-20T05:55:46;21.73;;;9.43;;
21492;SDS011;10908;50.690;4.400;2023-02-20T05:58:12;22.60;;;10.68;;
21492;SDS011;10908;50.690;4.400;2023-02-20T06:00:37;22.23;;;10.27;;
21492;SDS011;10908;50.690;4.400;2023-02-20T06:03:06;22.20;;;9.95;;
21492;SDS011;10908;50.690;4.400;2023-02-20T06:05:34;25.23;;;9.70;;
21492;SDS011;10908;50.690;4.400;2023-02-20T06:08:00;17.92;;;9.07;;
21492;SDS011;10908;50.690;4.400;2023-02-20T06:10:25;19.77;;;9.50;;
21492;SDS011;10908;50.690;4.400;2023-02-20T06:12:51;19.38;;;10.00;;
21492;SDS011;10908;50.690;4.400;2023-02-20T06:15:17;25.15;;;10.65;;
21492;SDS011;10908;50.690;4.400;2023-02-20T06:17:42;27.10;;;11.82;;
21492;SDS011;10908;50.690;4.400;2023-02-20T06:20:08;23.80;;;11.82;;
21492;SDS011;10908;50.690;4.400;2023-02-20T06:22:34;29.05;;;12.38;;
21492;SDS011;10908;50.690;4.400;2023-02-20T06:24:59;26.58;;;12.57;;
21492;SDS011;10908;50.690;4.400;2023-02-20T06:27:25;34.03;;;13.35;;
21492;SDS011;10908;50.690;4.400;2023-02-20T06:29:51;32.42;;;15.68;;
21492;SDS011;10908;50.690;4.400;2023-02-20T06:32:16;29.77;;;15.32;;
21492;SDS011;10908;50.690;4.400;2023-02-20T06:34:43;40.03;;;16.10;;
21492;SDS011;10908;50.690;4.400;2023-02-20T06:37:09;29.40;;;15.18;;
21492;SDS011;10908;50.690;4.400;2023-02-20T06:39:35;31.58;;;15.32;;
21492;SDS011;10908;50.690;4.400;2023-02-20T06:42:01;27.17;;;13.70;;
21492;SDS011;10908;50.690;4.400;2023-02-20T06:44:26;30.38;;;12.98;;
21492;SDS011;10908;50.690;4.400;2023-02-20T06:46:52;25.75;;;12.43;;
21492;SDS011;10908;50.690;4.400;2023-02-20T06:49:18;27.10;;;12.57;;
21492;SDS011;10908;50.690;4.400;2023-02-20T06:51:43;24.58;;;10.10;;
21492;SDS011;10908;50.690;4.400;2023-02-20T06:54:10;27.17;;;10.48;;
21492;SDS011;10908;50.690;4.400;2023-02-20T06:56:36;23.58;;;9.77;;
21492;SDS011;10908;50.690;4.400;2023-02-20T06:59:03;18.00;;;9.15;;
21492;SDS011;10908;50.690;4.400;2023-02-20T07:01:35;20.98;;;9.38;;
21492;SDS011;10908;50.690;4.400;2023-02-20T07:04:04;23.45;;;9.23;;
21492;SDS011;10908;50.690;4.400;2023-02-20T07:06:30;18.40;;;8.38;;
21492;SDS011;10908;50.690;4.400;2023-02-20T07:08:56;21.98;;;8.52;;
21492;SDS011;10908;50.690;4.400;2023-02-20T07:11:22;17.95;;;8.02;;
21492;SDS011;10908;50.690;4.400;2023-02-20T07:13:48;19.35;;;8.65;;
21492;SDS011;10908;50.690;4.400;2023-02-20T07:16:15;26.85;;;8.00;;
21492;SDS011;10908;50.690;4.400;2023-02-20T07:18:41;19.20;;;8.05;;
21492;SDS011;10908;50.690;4.400;2023-02-20T07:21:06;21.17;;;8.13;;
21492;SDS011;10908;50.690;4.400;2023-02-20T07:23:32;14.85;;;7.28;;
21492;SDS011;10908;50.690;4.400;2023-02-20T07:25:58;21.17;;;7.32;;
21492;SDS011;10908;50.690;4.400;2023-02-20T07:28:24;17.00;;;7.03;;
21492;SDS011;10908;50.690;4.400;2023-02-20T07:30:49;19.02;;;7.18;;
21492;SDS011;10908;50.690;4.400;2023-02-20T07:33:15;21.35;;;8.23;;
21492;SDS011;10908;50.690;4.400;2023-02-20T07:35:42;20.35;;;7.95;;
21492;SDS011;10908;50.690;4.400;2023-02-20T07:38:08;20.85;;;7.38;;
21492;SDS011;10908;50.690;4.400;2023-02-20T07:40:34;18.20;;;6.57;;
21492;SDS011;10908;50.690;4.400;2023-02-20T07:42:59;19.80;;;5.93;;
21492;SDS011;10908;50.690;4.400;2023-02-20T07:45:25;17.23;;;6.03;;
21492;SDS011;10908;50.690;4.400;2023-02-20T07:47:52;16.13;;;5.75;;
21492;SDS011;10908;50.690;4.400;2023-02-20T07:50:17;16.35;;;5.63;;
21492;SDS011;10908;50.690;4.400;2023-02-20T07:52:43;15.27;;;5.75;;
21492;SDS011;10908;50.690;4.400;2023-02-20T07:55:16;14.63;;;5.47;;
21492;SDS011;10908;50.690;4.400;2023-02-20T07:57:44;18.02;;;5.68;;
21492;SDS011;10908;50.690;4.400;2023-02-20T08:00:15;14.23;;;5.20;;
21492;SDS011;10908;50.690;4.400;2023-02-20T08:02:42;15.45;;;5.45;;
21492;SDS011;10908;50.690;4.400;2023-02-20T08:05:08;16.08;;;5.15;;
21492;SDS011;10908;50.690;4.400;2023-02-20T08:07:34;15.15;;;5.47;;
21492;SDS011;10908;50.690;4.400;2023-02-20T08:10:00;17.50;;;5.68;;
21492;SDS011;10908;50.690;4.400;2023-02-20T08:12:25;16.52;;;5.20;;
21492;SDS011;10908;50.690;4.400;2023-02-20T08:14:51;13.70;;;4.80;;
21492;SDS011;10908;50.690;4.400;2023-02-20T08:17:17;15.32;;;4.82;;
21492;SDS011;10908;50.690;4.400;2023-02-20T08:19:43;13.15;;;4.75;;
21492;SDS011;10908;50.690;4.400;2023-02-20T08:22:09;13.05;;;5.18;;
21492;SDS011;10908;50.690;4.400;2023-02-20T08:24:34;14.38;;;4.93;;
21492;SDS011;10908;50.690;4.400;2023-02-20T08:27:00;13.48;;;5.05;;
21492;SDS011;10908;50.690;4.400;2023-02-20T08:29:26;21.98;;;5.30;;
21492;SDS011;10908;50.690;4.400;2023-02-20T08:31:51;13.85;;;5.07;;
21492;SDS011;10908;50.690;4.400;2023-02-20T08:34:17;13.88;;;4.72;;
21492;SDS011;10908;50.690;4.400;2023-02-20T08:36:42;14.50;;;5.03;;
21492;SDS011;10908;50.690;4.400;2023-02-20T08:39:08;18.02;;;5.30;;
21492;SDS011;10908;50.690;4.400;2023-02-20T08:41:34;14.68;;;5.07;;
21492;SDS011;10908;50.690;4.400;2023-02-20T08:44:05;19.60;;;5.10;;
21492;SDS011;10908;50.690;4.400;2023-02-20T08:46:30;13.95;;;4.65;;
21492;SDS011;10908;50.690;4.400;2023-02-20T08:48:56;14.57;;;4.68;;
21492;SDS011;10908;50.690;4.400;2023-02-20T08:51:22;13.82;;;4.88;;
21492;SDS011;10908;50.690;4.400;2023-02-20T08:53:47;12.32;;;4.57;;
21492;SDS011;10908;50.690;4.400;2023-02-20T08:56:17;14.65;;;5.03;;
21492;SDS011;10908;50.690;4.400;2023-02-20T08:58:43;12.25;;;4.63;;
21492;SDS011;10908;50.690;4.400;2023-02-20T09:01:09;13.32;;;4.53;;
21492;SDS011;10908;50.690;4.400;2023-02-20T09:03:35;16.23;;;4.78;;
21492;SDS011;10908;50.690;4.400;2023-02-20T09:06:03;13.48;;;4.80;;
21492;SDS011;10908;50.690;4.400;2023-02-20T09:08:29;12.93;;;4.68;;
21492;SDS011;10908;50.690;4.400;2023-02-20T09:10:55;11.23;;;4.60;;
21492;SDS011;10908;50.690;4.400;2023-02-20T09:13:20;11.88;;;4.85;;
21492;SDS011;10908;50.690;4.400;2023-02-20T09:15:46;13.18;;;4.80;;
21492;SDS011;10908;50.690;4.400;2023-02-20T09:18:12;12.80;;;4.55;;
21492;SDS011;10908;50.690;4.400;2023-02-20T09:20:38;15.20;;;4.93;;
21492;SDS011;10908;50.690;4.400;2023-02-20T09:23:05;13.93;;;4.75;;
21492;SDS011;10908;50.690;4.400;2023-02-20T09:25:31;16.48;;;5.00;;
21492;SDS011;10908;50.690;4.400;2023-02-20T09:27:57;15.23;;;5.13;;
21492;SDS011;10908;50.690;4.400;2023-02-20T09:30:23;16.63;;;4.93;;
21492;SDS011;10908;50.690;4.400;2023-02-20T09:32:49;11.55;;;5.00;;
21492;SDS011;10908;50.690;4.400;2023-02-20T09:35:16;15.68;;;5.18;;
21492;SDS011;10908;50.690;4.400;2023-02-20T09:37:44;13.35;;;5.32;;
21492;SDS011;10908;50.690;4.400;2023-02-20T09:40:11;14.35;;;5.43;;
21492;SDS011;10908;50.690;4.400;2023-02-20T09:42:54;11.88;;;4.75;;
21492;SDS011;10908;50.690;4.400;2023-02-20T09:45:30;14.70;;;5.20;;
21492;SDS011;10908;50.690;4.400;2023-02-20T09:50:36;16.35;;;5.32;;
21492;SDS011;10908;50.690;4.400;2023-02-20T09:56:13;11.75;;;4.93;;
21492;SDS011;10908;50.690;4.400;2023-02-20T09:58:43;14.45;;;5.00;;
21492;SDS011;10908;50.690;4.400;2023-02-20T10:01:14;13.88;;;5.72;;
21492;SDS011;10908;50.690;4.400;2023-02-20T10:03:50;13.32;;;5.15;;
21492;SDS011;10908;50.690;4.400;2023-02-20T10:06:24;16.58;;;5.60;;
21492;SDS011;10908;50.690;4.400;2023-02-20T10:08:56;17.65;;;5.80;;
21492;SDS011;10908;50.690;4.400;2023-02-20T10:13:54;15.30;;;5.82;;
21492;SDS011;10908;50.690;4.400;2023-02-20T10:16:44;14.75;;;6.03;;
21492;SDS011;10908;50.690;4.400;2023-02-20T10:30:09;20.10;;;5.93;;
21492;SDS011;10908;50.690;4.400;2023-02-20T10:32:45;19.23;;;5.90;;
21492;SDS011;10908;50.690;4.400;2023-02-20T10:38:37;14.45;;;5.15;;
21492;SDS011;10908;50.690;4.400;2023-02-20T15:55:41;14.52;;;5.78;;
21492;SDS011;10908;50.690;4.400;2023-02-20T16:00:48;11.70;;;5.50;;
21492;SDS011;10908;50.690;4.400;2023-02-20T16:03:15;14.35;;;5.30;;
21492;SDS011;10908;50.690;4.400;2023-02-20T16:05:41;14.25;;;5.95;;
21492;SDS011;10908;50.690;4.400;2023-02-20T16:08:07;16.63;;;5.93;;
21492;SDS011;10908;50.690;4.400;2023-02-20T16:10:32;11.15;;;5.70;;
21492;SDS011;10908;50.690;4.400;2023-02-20T16:12:58;14.27;;;5.40;;
21492;SDS011;10908;50.690;4.400;2023-02-20T16:15:25;10.73;;;5.28;;
21492;SDS011;10908;50.690;4.400;2023-02-20T16:17:51;12.00;;;5.55;;
21492;SDS011;10908;50.690;4.400;2023-02-20T16:20:19;14.30;;;5.68;;
21492;SDS011;10908;50.690;4.400;2023-02-20T16:22:44;9.82;;;5.15;;
21492;SDS011;10908;50.690;4.400;2023-02-20T16:25:10;12.88;;;6.13;;
21492;SDS011;10908;50.690;4.400;2023-02-20T16:27:39;11.77;;;6.05;;
21492;SDS011;10908;50.690;4.400;2023-02-20T16:30:04;16.38;;;6.90;;
21492;SDS011;10908;50.690;4.400;2023-02-20T16:32:31;16.05;;;6.85;;
21492;SDS011;10908;50.690;4.400;2023-02-20T16:34:57;15.88;;;7.32;;
21492;SDS011;10908;50.690;4.400;2023-02-20T16:37:24;17.67;;;6.97;;
21492;SDS011;10908;50.690;4.400;2023-02-20T16:39:50;15.82;;;6.93;;
21492;SDS011;10908;50.690;4.400;2023-02-20T16:42:21;13.68;;;6.85;;
21492;SDS011;10908;50.690;4.400;2023-02-20T16:45:15;16.00;;;6.85;;
21492;SDS011;10908;50.690;4.400;2023-02-20T16:47:43;14.85;;;6.50;;
21492;SDS011;10908;50.690;4.400;2023-02-20T16:52:45;12.27;;;6.85;;
21492;SDS011;10908;50.690;4.400;2023-02-20T16:55:27;12.65;;;6.35;;
21492;SDS011;10908;50.690;4.400;2023-02-20T16:57:55;15.73;;;7.10;;
21492;SDS011;10908;50.690;4.400;2023-02-20T17:00:22;14.20;;;6.88;;
21492;SDS011;10908;50.690;4.400;2023-02-20T17:02:50;14.05;;;7.38;;
21492;SDS011;10908;50.690;4.400;2023-02-20T17:05:18;14.13;;;7.32;;
21492;SDS011;10908;50.690;4.400;2023-02-20T17:07:45;13.65;;;7.95;;
21492;SDS011;10908;50.690;4.400;2023-02-20T17:10:11;12.25;;;7.07;;
21492;SDS011;10908;50.690;4.400;2023-02-20T17:12:36;14.68;;;7.00;;
21492;SDS011;10908;50.690;4.400;2023-02-20T17:15:03;13.02;;;7.15;;
21492;SDS011;10908;50.690;4.400;2023-02-20T17:17:30;14.48;;;6.82;;
21492;SDS011;10908;50.690;4.400;2023-02-20T17:19:59;12.45;;;6.78;;
21492;SDS011;10908;50.690;4.400;2023-02-20T17:22:27;12.80;;;6.65;;
21492;SDS011;10908;50.690;4.400;2023-02-20T17:24:53;13.05;;;7.55;;
21492;SDS011;10908;50.690;4.400;2023-02-20T17:27:20;22.85;;;15.75;;
21492;SDS011;10908;50.690;4.400;2023-02-20T17:29:46;46.10;;;28.13;;
21492;SDS011;10908;50.690;4.400;2023-02-20T17:32:12;45.40;;;33.83;;
21492;SDS011;10908;50.690;4.400;2023-02-20T17:34:39;20.23;;;13.38;;
21492;SDS011;10908;50.690;4.400;2023-02-20T17:37:05;24.88;;;13.43;;
21492;SDS011;10908;50.690;4.400;2023-02-20T17:39:32;15.23;;;8.80;;
21492;SDS011;10908;50.690;4.400;2023-02-20T17:41:58;15.38;;;8.60;;
21492;SDS011;10908;50.690;4.400;2023-02-20T17:44:24;17.20;;;8.93;;
21492;SDS011;10908;50.690;4.400;2023-02-20T17:46:53;15.93;;;8.25;;
21492;SDS011;10908;50.690;4.400;2023-02-20T17:49:21;14.73;;;8.20;;
21492;SDS011;10908;50.690;4.400;2023-02-20T17:51:52;14.38;;;8.02;;
21492;SDS011;10908;50.690;4.400;2023-02-20T17:54:25;14.55;;;8.57;;
21492;SDS011;10908;50.690;4.400;2023-02-20T17:56:52;13.77;;;7.88;;
21492;SDS011;10908;50.690;4.400;2023-02-20T17:59:18;14.00;;;8.13;;
21492;SDS011;10908;50.690;4.400;2023-02-20T18:01:44;16.25;;;9.35;;
21492;SDS011;10908;50.690;4.400;2023-02-20T18:04:10;12.85;;;7.30;;
21492;SDS011;10908;50.690;4.400;2023-02-20T18:06:37;16.00;;;9.60;;
21492;SDS011;10908;50.690;4.400;2023-02-20T18:09:04;14.07;;;7.93;;
21492;SDS011;10908;50.690;4.400;2023-02-20T18:11:30;15.75;;;8.20;;
21492;SDS011;10908;50.690;4.400;2023-02-20T18:13:57;13.75;;;9.07;;
21492;SDS011;10908;50.690;4.400;2023-02-20T18:16:24;14.75;;;8.05;;
21492;SDS011;10908;50.690;4.400;2023-02-20T18:18:51;14.43;;;8.57;;
21492;SDS011;10908;50.690;4.400;2023-02-20T18:21:18;12.80;;;8.27;;
21492;SDS011;10908;50.690;4.400;2023-02-20T18:23:48;16.25;;;8.20;;
21492;SDS011;10908;50.690;4.400;2023-02-20T18:26:14;18.13;;;8.40;;
21492;SDS011;10908;50.690;4.400;2023-02-20T18:28:40;13.75;;;8.02;;
21492;SDS011;10908;50.690;4.400;2023-02-20T18:31:06;14.00;;;7.47;;
21492;SDS011;10908;50.690;4.400;2023-02-20T18:33:32;15.73;;;9.38;;
21492;SDS011;10908;50.690;4.400;2023-02-20T18:35:58;16.17;;;8.23;;
21492;SDS011;10908;50.690;4.400;2023-02-20T18:38:24;13.82;;;8.80;;
21492;SDS011;10908;50.690;4.400;2023-02-20T18:40:50;14.25;;;8.65;;
21492;SDS011;10908;50.690;4.400;2023-02-20T18:43:16;16.30;;;8.45;;
21492;SDS011;10908;50.690;4.400;2023-02-20T18:45:42;13.00;;;8.10;;
21492;SDS011;10908;50.690;4.400;2023-02-20T18:48:08;13.02;;;7.72;;
21492;SDS011;10908;50.690;4.400;2023-02-20T18:50:34;13.10;;;8.60;;
21492;SDS011;10908;50.690;4.400;2023-02-20T18:52:59;12.98;;;7.88;;
21492;SDS011;10908;50.690;4.400;2023-02-20T18:55:25;14.00;;;8.55;;
21492;SDS011;10908;50.690;4.400;2023-02-20T18:57:51;16.05;;;8.52;;
21492;SDS011;10908;50.690;4.400;2023-02-20T19:00:18;15.93;;;8.65;;
21492;SDS011;10908;50.690;4.400;2023-02-20T19:02:47;14.05;;;8.68;;
21492;SDS011;10908;50.690;4.400;2023-02-20T19:05:14;16.15;;;9.10;;
21492;SDS011;10908;50.690;4.400;2023-02-20T19:07:40;15.35;;;9.25;;
21492;SDS011;10908;50.690;4.400;2023-02-20T19:10:06;16.25;;;9.93;;
21492;SDS011;10908;50.690;4.400;2023-02-20T19:12:33;15.93;;;9.45;;
21492;SDS011;10908;50.690;4.400;2023-02-20T19:14:58;15.43;;;9.10;;
21492;SDS011;10908;50.690;4.400;2023-02-20T19:17:28;16.23;;;9.95;;
21492;SDS011;10908;50.690;4.400;2023-02-20T19:19:55;16.90;;;9.60;;
21492;SDS011;10908;50.690;4.400;2023-02-20T19:22:20;15.57;;;9.82;;
21492;SDS011;10908;50.690;4.400;2023-02-20T19:24:47;16.63;;;9.57;;
21492;SDS011;10908;50.690;4.400;2023-02-20T19:27:13;17.25;;;10.15;;
21492;SDS011;10908;50.690;4.400;2023-02-20T19:29:39;16.55;;;10.18;;
21492;SDS011;10908;50.690;4.400;2023-02-20T19:32:05;16.17;;;9.52;;
21492;SDS011;10908;50.690;4.400;2023-02-20T19:34:31;19.60;;;10.80;;
21492;SDS011;10908;50.690;4.400;2023-02-20T19:36:56;19.33;;;10.07;;
21492;SDS011;10908;50.690;4.400;2023-02-20T19:39:23;15.50;;;9.68;;
21492;SDS011;10908;50.690;4.400;2023-02-20T19:41:49;17.80;;;10.38;;
21492;SDS011;10908;50.690;4.400;2023-02-20T19:44:15;17.38;;;9.88;;
21492;SDS011;10908;50.690;4.400;2023-02-20T19:46:41;16.92;;;9.85;;
21492;SDS011;10908;50.690;4.400;2023-02-20T19:49:07;17.98;;;9.85;;
21492;SDS011;10908;50.690;4.400;2023-02-20T19:51:37;15.80;;;9.88;;
21492;SDS011;10908;50.690;4.400;2023-02-20T19:54:04;15.52;;;9.60;;
21492;SDS011;10908;50.690;4.400;2023-02-20T19:56:30;22.13;;;11.05;;
21492;SDS011;10908;50.690;4.400;2023-02-20T19:58:56;16.75;;;10.05;;
21492;SDS011;10908;50.690;4.400;2023-02-20T20:01:22;18.25;;;10.95;;
21492;SDS011;10908;50.690;4.400;2023-02-20T20:03:48;17.05;;;10.07;;
21492;SDS011;10908;50.690;4.400;2023-02-20T20:06:15;17.02;;;10.30;;
21492;SDS011;10908;50.690;4.400;2023-02-20T20:08:42;20.23;;;10.13;;
21492;SDS011;10908;50.690;4.400;2023-02-20T20:11:08;18.23;;;11.32;;
21492;SDS011;10908;50.690;4.400;2023-02-20T20:13:34;19.30;;;11.57;;
21492;SDS011;10908;50.690;4.400;2023-02-20T20:15:59;21.45;;;11.63;;
21492;SDS011;10908;50.690;4.400;2023-02-20T20:18:25;18.30;;;10.93;;
21492;SDS011;10908;50.690;4.400;2023-02-20T20:20:51;17.08;;;10.73;;
21492;SDS011;10908;50.690;4.400;2023-02-20T20:23:17;19.67;;;10.65;;
21492;SDS011;10908;50.690;4.400;2023-02-20T20:25:43;19.95;;;11.18;;
21492;SDS011;10908;50.690;4.400;2023-02-20T20:28:08;19.20;;;10.57;;
21492;SDS011;10908;50.690;4.400;2023-02-20T20:30:35;21.05;;;11.52;;
21492;SDS011;10908;50.690;4.400;2023-02-20T20:33:03;18.50;;;10.80;;
21492;SDS011;10908;50.690;4.400;2023-02-20T20:35:29;20.15;;;11.13;;
21492;SDS011;10908;50.690;4.400;2023-02-20T20:37:55;17.73;;;11.38;;
21492;SDS011;10908;50.690;4.400;2023-02-20T20:40:22;20.02;;;11.45;;
21492;SDS011;10908;50.690;4.400;2023-02-20T20:42:49;19.50;;;11.88;;
21492;SDS011;10908;50.690;4.400;2023-02-20T20:45:16;18.02;;;11.75;;
21492;SDS011;10908;50.690;4.400;2023-02-20T20:47:42;22.65;;;12.40;;
21492;SDS011;10908;50.690;4.400;2023-02-20T20:50:09;22.88;;;11.60;;
21492;SDS011;10908;50.690;4.400;2023-02-20T20:52:42;20.70;;;11.88;;
21492;SDS011;10908;50.690;4.400;2023-02-20T20:55:08;18.95;;;12.13;;
21492;SDS011;10908;50.690;4.400;2023-02-20T20:57:34;21.20;;;12.55;;
21492;SDS011;10908;50.690;4.400;2023-02-20T21:00:01;22.88;;;12.70;;
21492;SDS011;10908;50.690;4.400;2023-02-20T21:02:29;20.75;;;12.25;;
21492;SDS011;10908;50.690;4.400;2023-02-20T21:04:55;22.33;;;12.48;;
21492;SDS011;10908;50.690;4.400;2023-02-20T21:07:21;24.35;;;13.00;;
21492;SDS011;10908;50.690;4.400;2023-02-20T21:09:48;21.73;;;12.35;;
21492;SDS011;10908;50.690;4.400;2023-02-20T21:12:14;19.40;;;11.73;;
21492;SDS011;10908;50.690;4.400;2023-02-20T21:14:40;21.77;;;12.73;;
21492;SDS011;10908;50.690;4.400;2023-02-20T21:17:06;20.17;;;12.75;;
21492;SDS011;10908;50.690;4.400;2023-02-20T21:19:33;21.70;;;13.15;;
21492;SDS011;10908;50.690;4.400;2023-02-20T21:21:59;23.27;;;13.85;;
21492;SDS011;10908;50.690;4.400;2023-02-20T21:24:24;21.65;;;12.55;;
21492;SDS011;10908;50.690;4.400;2023-02-20T21:26:50;21.63;;;12.93;;
21492;SDS011;10908;50.690;4.400;2023-02-20T21:29:16;18.17;;;12.18;;
21492;SDS011;10908;50.690;4.400;2023-02-20T21:31:42;19.60;;;11.75;;
21492;SDS011;10908;50.690;4.400;2023-02-20T21:34:09;23.05;;;12.20;;
21492;SDS011;10908;50.690;4.400;2023-02-20T21:36:35;20.63;;;13.30;;
21492;SDS011;10908;50.690;4.400;2023-02-20T21:39:01;24.17;;;13.40;;
21492;SDS011;10908;50.690;4.400;2023-02-20T21:41:27;20.70;;;12.15;;
21492;SDS011;10908;50.690;4.400;2023-02-20T21:44:21;21.83;;;13.27;;
21492;SDS011;10908;50.690;4.400;2023-02-20T21:46:58;20.02;;;12.52;;
21492;SDS011;10908;50.690;4.400;2023-02-20T21:49:29;19.17;;;11.98;;
21492;SDS011;10908;50.690;4.400;2023-02-20T21:51:56;17.80;;;11.52;;
21492;SDS011;10908;50.690;4.400;2023-02-20T21:54:23;17.98;;;11.15;;
21492;SDS011;10908;50.690;4.400;2023-02-20T21:56:51;19.48;;;11.90;;
21492;SDS011;10908;50.690;4.400;2023-02-20T21:59:17;18.75;;;11.95;;
21492;SDS011;10908;50.690;4.400;2023-02-20T22:01:42;17.35;;;11.75;;
21492;SDS011;10908;50.690;4.400;2023-02-20T22:04:08;21.10;;;12.80;;
21492;SDS011;10908;50.690;4.400;2023-02-20T22:06:35;19.85;;;12.15;;
21492;SDS011;10908;50.690;4.400;2023-02-20T22:09:01;21.63;;;12.02;;
21492;SDS011;10908;50.690;4.400;2023-02-20T22:11:48;22.33;;;13.48;;
21492;SDS011;10908;50.690;4.400;2023-02-20T22:14:32;24.10;;;13.35;;
21492;SDS011;10908;50.690;4.400;2023-02-20T22:17:16;22.00;;;12.40;;
21492;SDS011;10908;50.690;4.400;2023-02-20T22:20:01;20.58;;;12.38;;
21492;SDS011;10908;50.690;4.400;2023-02-20T22:22:45;22.20;;;12.27;;
21492;SDS011;10908;50.690;4.400;2023-02-20T22:25:29;23.75;;;13.23;;
21492;SDS011;10908;50.690;4.400;2023-02-20T22:28:13;18.63;;;12.43;;
21492;SDS011;10908;50.690;4.400;2023-02-20T22:31:01;20.48;;;12.63;;
21492;SDS011;10908;50.690;4.400;2023-02-20T22:33:46;21.23;;;12.80;;
21492;SDS011;10908;50.690;4.400;2023-02-20T22:36:31;19.30;;;12.88;;
21492;SDS011;10908;50.690;4.400;2023-02-20T22:39:15;21.60;;;13.45;;
21492;SDS011;10908;50.690;4.400;2023-02-20T22:42:00;25.75;;;13.80;;
21492;SDS011;10908;50.690;4.400;2023-02-20T22:44:45;20.42;;;13.07;;
21492;SDS011;10908;50.690;4.400;2023-02-20T22:47:29;24.77;;;14.00;;
21492;SDS011;10908;50.690;4.400;2023-02-20T22:50:14;22.75;;;12.95;;
21492;SDS011;10908;50.690;4.400;2023-02-20T22:52:59;23.95;;;13.57;;
21492;SDS011;10908;50.690;4.400;2023-02-20T22:55:43;22.48;;;13.93;;
21492;SDS011;10908;50.690;4.400;2023-02-20T22:58:27;25.50;;;14.48;;
21492;SDS011;10908;50.690;4.400;2023-02-20T23:01:11;22.80;;;13.90;;
21492;SDS011;10908;50.690;4.400;2023-02-20T23:03:56;22.90;;;13.95;;
21492;SDS011;10908;50.690;4.400;2023-02-20T23:06:40;25.83;;;15.27;;
21492;SDS011;10908;50.690;4.400;2023-02-20T23:09:24;30.58;;;17.15;;
21492;SDS011;10908;50.690;4.400;2023-02-20T23:12:08;25.23;;;14.45;;